createdAt,value
2023-03-23T15:58:28.907Z,36.92
2023-03-23T16:00:56.146Z,37.12
2023-03-23T16:03:43.120Z,37.25
2023-03-23T16:06:13.561Z,37.18
2023-03-23T16:08:54.826Z,37.27
2023-03-23T16:11:22.308Z,37.44
2023-03-23T16:13:48.873Z,37.35
2023-03-23T16:16:21.279Z,37.69
2023-03-23T16:18:47.997Z,37.49
2023-03-23T16:21:14.741Z,37.80
2023-03-23T16:23:44.542Z,37.75
2023-03-23T16:26:11.271Z,37.58
2023-03-23T16:28:37.960Z,37.68
2023-03-23T16:31:04.831Z,37.57
2023-03-23T16:33:31.619Z,37.99
2023-03-23T16:35:58.607Z,38.25
2023-03-23T16:38:25.553Z,38.00
2023-03-23T16:40:52.552Z,37.95
2023-03-23T16:43:19.417Z,38.13
2023-03-23T16:45:47.153Z,38.69
2023-03-23T16:48:16.139Z,38.74
2023-03-23T16:50:43.836Z,39.02
2023-03-23T16:53:11.462Z,39.28
2023-03-23T16:55:39.096Z,39.25
2023-03-23T16:58:16.224Z,39.49
2023-03-23T17:00:45.342Z,40.29
2023-03-23T17:03:13.426Z,39.98
2023-03-23T17:05:41.199Z,40.42
2023-03-23T17:08:08.013Z,40.65
2023-03-23T17:10:34.860Z,41.00
2023-03-23T17:13:02.050Z,41.27
2023-03-23T17:15:28.967Z,41.61
2023-03-23T17:17:55.721Z,41.67
2023-03-23T17:20:23.661Z,41.93
2023-03-23T17:22:50.816Z,42.28
2023-03-23T17:25:17.946Z,42.97
2023-03-23T17:27:45.058Z,42.80
2023-03-23T17:30:12.477Z,43.12
2023-03-23T17:32:39.935Z,43.59
2023-03-23T17:35:08.620Z,43.97
2023-03-23T17:37:37.911Z,44.54
2023-03-23T17:40:08.835Z,45.46
2023-03-23T17:42:37.226Z,44.90
2023-03-23T17:45:06.322Z,44.92
2023-03-23T17:47:34.683Z,45.08
2023-03-23T17:50:11.444Z,45.19
2023-03-23T17:52:40.556Z,45.53
2023-03-23T17:55:08.611Z,45.70
2023-03-23T17:57:36.072Z,46.17
2023-03-23T18:00:07.973Z,46.43
2023-03-23T18:02:38.105Z,46.48
2023-03-23T18:05:06.741Z,46.59
2023-03-23T18:07:34.062Z,46.76
2023-03-23T18:10:04.619Z,46.95
2023-03-23T18:12:31.824Z,46.94
2023-03-23T18:14:59.916Z,47.00
2023-03-23T18:17:27.875Z,46.95
2023-03-23T18:19:56.188Z,46.66
2023-03-23T18:22:23.347Z,46.82
2023-03-23T18:24:51.113Z,46.68
2023-03-23T18:27:19.252Z,46.65
2023-03-23T18:29:46.824Z,46.48
2023-03-23T18:32:16.347Z,46.33
2023-03-23T18:34:46.911Z,46.34
2023-03-23T18:37:14.114Z,46.34
2023-03-23T18:39:41.312Z,46.27
2023-03-23T18:42:08.820Z,45.80
2023-03-23T18:44:36.044Z,45.85
2023-03-23T18:47:03.447Z,46.10
2023-03-23T18:49:31.662Z,46.25
2023-03-23T18:51:58.822Z,46.09
2023-03-23T18:54:26.430Z,46.22
2023-03-23T18:56:55.018Z,46.08
2023-03-23T18:59:34.111Z,46.06
2023-03-23T19:02:01.283Z,45.35
2023-03-23T19:04:32.144Z,45.48
2023-03-23T19:07:00.253Z,45.69
2023-03-23T19:09:27.802Z,45.51
2023-03-23T19:11:55.528Z,45.66
2023-03-23T19:14:22.890Z,45.25
2023-03-23T19:16:53.206Z,45.33
2023-03-23T19:19:24.945Z,45.63
2023-03-23T19:21:53.844Z,45.75
2023-03-23T19:24:21.565Z,46.29
2023-03-23T19:26:51.082Z,46.13
2023-03-23T19:29:26.678Z,46.29
2023-03-23T19:31:57.338Z,45.95
2023-03-23T19:34:26.190Z,46.03
2023-03-23T19:36:56.185Z,46.07
2023-03-23T19:39:27.011Z,45.52
2023-03-23T19:41:55.522Z,45.84
2023-03-23T19:44:24.013Z,46.01
2023-03-23T19:46:55.212Z,45.35
2023-03-23T19:49:22.850Z,45.54
2023-03-23T19:51:50.521Z,45.74
2023-03-23T19:54:18.336Z,45.51
2023-03-23T19:56:47.592Z,45.68
2023-03-23T19:59:18.251Z,45.54
2023-03-23T20:01:46.663Z,45.40
2023-03-23T20:04:14.446Z,45.74
2023-03-23T20:06:42.775Z,44.89
2023-03-23T20:09:11.419Z,44.65
2023-03-23T20:11:39.274Z,44.68
2023-03-23T20:14:06.988Z,44.51
2023-03-23T20:16:35.569Z,44.46
2023-03-23T20:19:05.064Z,44.45
2023-03-23T20:21:33.580Z,44.51
2023-03-23T20:24:00.728Z,44.50
2023-03-23T20:26:30.615Z,44.53
2023-03-23T20:28:58.570Z,44.49
2023-03-23T20:31:27.514Z,44.31
2023-03-23T20:34:00.240Z,44.40
2023-03-23T20:36:36.345Z,44.32
2023-03-23T20:39:13.226Z,44.40
2023-03-23T20:41:41.185Z,44.08
2023-03-23T20:44:11.823Z,44.07
2023-03-23T20:46:39.055Z,43.93
2023-03-23T20:49:09.728Z,43.76
2023-03-23T20:51:37.730Z,43.45
2023-03-23T20:54:07.216Z,43.43
2023-03-23T20:56:35.034Z,43.53
2023-03-23T20:59:03.128Z,43.53
2023-03-23T21:01:35.621Z,43.96
2023-03-23T21:04:03.816Z,43.41
2023-03-23T21:06:31.896Z,43.40
2023-03-23T21:08:59.467Z,43.32
2023-03-23T21:11:27.592Z,43.45
2023-03-23T21:13:59.805Z,43.48
2023-03-23T21:16:29.148Z,43.35
2023-03-23T21:18:56.478Z,43.49
2023-03-23T21:21:24.095Z,43.67
2023-03-23T21:23:52.758Z,43.57
2023-03-23T21:26:22.762Z,43.57
2023-03-23T21:28:51.083Z,43.41
2023-03-23T21:31:18.458Z,43.87
2023-03-23T21:33:45.159Z,43.75
2023-03-23T21:36:12.032Z,43.69
2023-03-23T21:38:40.232Z,43.68
2023-03-23T21:41:08.585Z,43.81
2023-03-23T21:43:35.309Z,44.02
2023-03-23T21:46:04.344Z,44.29
2023-03-23T21:48:33.074Z,44.48
2023-03-23T21:51:05.273Z,44.35
2023-03-23T21:53:34.014Z,44.67
2023-03-23T21:56:00.662Z,44.92
2023-03-23T21:58:27.678Z,44.79
2023-03-23T22:00:55.480Z,44.93
2023-03-23T22:03:23.993Z,45.14
2023-03-23T22:05:57.048Z,46.27
2023-03-23T22:08:25.255Z,46.10
2023-03-23T22:11:01.451Z,46.24
2023-03-23T22:13:32.058Z,46.49
2023-03-23T22:15:59.574Z,46.48
2023-03-23T22:18:26.349Z,46.53
2023-03-23T22:20:53.795Z,46.65
2023-03-23T22:23:20.891Z,47.02
2023-03-23T22:25:47.701Z,47.11
2023-03-23T22:28:14.698Z,47.28
2023-03-23T22:30:41.508Z,47.40
2023-03-23T22:33:08.408Z,47.77
2023-03-23T22:35:35.453Z,48.02
2023-03-23T22:38:03.378Z,48.04
2023-03-23T22:40:33.250Z,48.31
2023-03-23T22:43:00.204Z,49.32
2023-03-23T22:45:28.203Z,49.61
2023-03-23T22:47:55.237Z,49.88
2023-03-23T22:50:24.319Z,50.04
2023-03-23T22:52:51.389Z,51.32
2023-03-23T22:55:18.581Z,51.48
2023-03-23T22:57:46.143Z,52.97
2023-03-23T23:00:18.762Z,53.52
2023-03-23T23:02:45.743Z,54.04
2023-03-23T23:05:13.494Z,54.48
2023-03-23T23:07:41.025Z,55.62
2023-03-23T23:10:08.125Z,56.28
2023-03-23T23:12:37.694Z,55.47
2023-03-23T23:15:06.251Z,55.78
2023-03-23T23:17:34.966Z,55.72
2023-03-23T23:20:05.588Z,55.96
2023-03-23T23:22:33.626Z,56.65
2023-03-23T23:25:01.351Z,57.25
2023-03-23T23:27:28.387Z,57.70
2023-03-23T23:29:55.174Z,57.93
2023-03-23T23:32:21.979Z,57.92
2023-03-23T23:34:48.671Z,58.63
2023-03-23T23:37:15.512Z,58.61
2023-03-23T23:39:42.679Z,58.43
2023-03-23T23:42:09.510Z,58.18
2023-03-23T23:44:36.333Z,59.05
2023-03-23T23:47:03.314Z,59.47
2023-03-23T23:49:30.092Z,59.36
2023-03-23T23:51:56.753Z,60.42
2023-03-23T23:54:30.374Z,61.75
2023-03-23T23:57:01.225Z,61.73
2023-03-23T23:59:29.198Z,62.33
